Date,TemperatureHighF,TemperatureAvgF,TemperatureLowF,DewpointHighF,DewpointAvgF,DewpointLowF,HumidityHigh,HumidityAvg,HumidityLow,PressureMaxIn,PressureMinIn,WindSpeedMaxMPH,WindSpeedAvgMPH,GustSpeedMaxMPH,PrecipitationSumIn
2013-3-1,71.8,55.5,47.5,56.0,47.7,-79.7,100,80,32,30.32,30.09,12,2,0,0.00
2013-3-2,68.3,55.4,49.8,52.6,47.5,39.5,98,77,37,30.11,29.93,12,3,0,0.00
2013-3-3,57.4,51.2,48.1,51.4,47.6,43.0,100,88,63,29.97,29.90,17,7,0,0.00
2013-3-4,56.0,48.7,45.8,46.7,42.9,35.0,95,81,52,30.02,29.92,14,4,0,0.00
2013-3-5,57.6,50.1,44.6,48.0,39.4,31.3,95,68,46,29.94,29.72,20,6,0,0.04
2013-3-6,56.1,50.7,46.7,50.5,41.5,33.0,100,72,46,29.93,29.73,17,5,0,0.04
2013-3-7,58.1,48.7,44.8,46.8,41.2,26.8,97,77,34,29.87,29.74,10,3,0,0.04
2013-3-8,55.5,49.5,45.6,47.0,42.2,35.9,100,77,57,29.91,29.72,19,5,0,0.00
2013-3-9,59.9,50.9,43.5,47.7,41.2,-83.2,100,73,37,30.18,29.91,13,4,0,0.00
2013-3-10,63.8,52.2,45.3,48.8,43.9,-77.7,100,78,37,30.22,30.11,13,4,0,0.00
2013-3-11,68.9,52.2,45.4,50.8,44.7,30.2,100,81,27,30.14,29.96,15,4,0,0.00
2013-3-12,66.4,52.5,47.9,54.0,47.6,40.9,100,86,44,30.02,29.93,15,5,0,0.00
2013-3-13,73.6,55.9,47.9,55.4,48.7,40.5,100,81,34,30.03,29.91,17,4,0,0.00
2013-3-14,60.4,53.2,49.5,54.7,50.2,47.4,100,90,69,30.04,29.94,15,6,0,0.00
2013-3-15,69.3,53.8,32.0,53.4,47.6,32.0,100,74,38,30.01,0.00,16,4,0,0.00
2013-3-18,61.6,53.9,49.4,48.1,43.3,33.9,94,69,38,30.00,29.89,14,6,0,0.00
2013-3-19,66.4,53.5,48.9,51.0,44.1,34.0,100,73,34,30.01,29.92,14,3,0,0.04
2013-3-20,59.5,53.8,50.5,55.8,50.6,43.5,100,89,58,30.01,29.92,11,3,0,0.12
2013-3-21,62.0,52.3,46.0,52.4,42.3,30.8,100,71,43,30.01,29.87,13,4,0,0.00
2013-3-22,61.3,52.1,44.1,46.7,36.6,9.4,98,61,13,29.98,29.88,16,4,0,0.00
2013-3-23,68.0,52.3,46.0,46.9,36.4,10.1,96,62,12,30.01,29.91,14,4,0,0.00
2013-3-24,59.6,50.8,45.7,47.1,43.5,36.3,100,78,45,29.96,29.83,17,6,0,0.00
2013-3-25,55.6,49.2,46.3,45.7,42.5,35.0,96,79,51,29.90,29.79,13,6,0,0.00
2013-3-26,57.5,51.3,47.6,48.4,43.2,35.5,95,75,50,29.88,29.79,14,5,0,0.00
2013-3-27,60.5,54.0,49.3,55.6,50.1,41.4,100,88,58,29.88,29.80,10,3,0,0.00
2013-3-28,66.3,57.9,54.0,57.4,53.5,47.2,100,86,59,29.95,29.85,13,4,0,0.00
2013-3-29,75.0,56.9,51.4,57.4,51.0,39.4,100,85,33,29.96,29.87,16,5,0,0.00
2013-3-30,69.2,57.6,53.2,57.4,52.0,39.8,100,84,41,29.93,29.83,13,4,0,0.08
2013-3-31,66.5,58.9,55.2,57.1,52.3,43.6,99,80,48,29.93,29.84,10,3,0,0.08